• Join FlightAware (Why Join?)
  • Login
  • US Flag 
04:54PM EST


 

Airport Tracker/Info


-or-


 

Live Flight TrackerFlight Track Log ✈ SWA3143 ✈ 07-Sep-2014 ✈ KSEA - KSAN

Flight Track Log - Related Links

Times and Time Zones

All times are in EDT time to prevent confusion due to time zone crossing. See the SWA3143 flight status page for this flight to view local times or setup timezone preferences in your user account.

Time Position Orientation Groundspeed Altitude Reporting Facility
EDT Latitude Longitude Course Direction KTS MPH feet Rate Location/Type
11:18PM 47.4747 -122.3083 359° North 178 205 1,400  Level Seattle Center
11:18PM 47.4972 -122.3089 359° North 185 213 2,300 2,400 Climbing Seattle Center
11:19PM 47.5617 -122.3094 360° North 223 257 4,800 2,580 Climbing Seattle Center
11:20PM 47.6086 -122.2578 37° Northeast 251 289 7,600 2,280 Climbing Seattle Center
11:21PM 47.5606 -122.1842 134° Southeast 303 349 9,500 1,680 Climbing Seattle Center
11:22PM 47.4711 -122.1722 175° South 336 387 11,100 2,160 Climbing Seattle Center
11:23PM 47.3708 -122.1494 171° South 359 413 13,900 2,520 Climbing Seattle Center
11:24PM 47.2678 -122.1267 171° South 373 429 16,300 2,280 Climbing Seattle Center
11:26PM 47.1572 -122.1019 171° South 378 435 18,600 1,980 Climbing Seattle Center
11:27PM 47.0483 -122.0778 171° South 390 449 20,400 1,860 Climbing Seattle Center
11:28PM 46.9347 -122.0542 172° South 407 468 22,400 1,620 Climbing Seattle Center
11:29PM 46.8181 -122.0294 172° South 416 479 23,800 1,380 Climbing Seattle Center
11:30PM 46.6972 -122.0036 172° South 433 498 25,200 1,380 Climbing Seattle Center
11:31PM 46.5747 -121.9744 171° South 441 507 26,600 1,320 Climbing Seattle Center
11:32PM 46.4497 -121.9306 166° South 456 525 27,900 1,260 Climbing Seattle Center
11:33PM 46.3253 -121.8886 167° South 458 527 29,200 1,320 Climbing Seattle Center
11:34PM 46.1892 -121.8442 167° South 462 532 30,600 1,320 Climbing Seattle Center
11:35PM 46.0653 -121.8019 167° South 462 532 31,900 1,200 Climbing Seattle Center
11:36PM 45.9422 -121.7594 166° South 457 526 33,100 1,200 Climbing Seattle Center
11:37PM 45.8214 -121.7183 167° South 452 520 34,400 900 Climbing Seattle Center
11:38PM 45.7022 -121.6803 167° South 447 514 35,000 240 Climbing Seattle Center
11:39PM 45.5836 -121.6406 167° South 440 506 35,000  Level Seattle Center
11:40PM 45.4644 -121.6008 167° South 440 506 35,000  Level Seattle Center
11:41PM 45.3450 -121.5619 167° South 442 509 35,000  Level Seattle Center
11:42PM 45.2258 -121.5228 167° South 442 509 35,000  Level Seattle Center
11:43PM 45.1061 -121.4844 167° South 442 509 35,000  Level Seattle Center
11:44PM 44.9642 -121.4372 167° South 441 507 35,000  Level Seattle Center
11:45PM 44.8547 -121.4031 168° South 442 509 35,000  Level Seattle Center
11:46PM 44.7356 -121.3644 167° South 441 507 35,000  Level Seattle Center
11:47PM 44.6164 -121.3269 167° South 441 507 35,000  Level Seattle Center
11:48PM 44.4978 -121.2894 167° South 440 506 35,000  Level Seattle Center
11:49PM 44.3811 -121.2531 167° South 436 502 35,000  Level Seattle Center
11:50PM 44.2533 -121.2117 167° South 437 503 35,000  Level Seattle Center
11:51PM 44.1364 -121.1747 167° South 437 503 35,000  Level Seattle Center
11:52PM 44.0181 -121.1372 167° South 436 502 35,000  Level Seattle Center
11:53PM 43.9022 -121.1008 167° South 433 498 35,000  Level Seattle Center
11:54PM 43.7850 -121.0636 167° South 432 497 35,000  Level Seattle Center
11:55PM 43.6697 -121.0278 167° South 431 496 35,000  Level Seattle Center
11:56PM 43.5422 -120.9897 168° South 430 495 35,000  Level Seattle Center
11:57PM 43.4267 -120.9544 167° South 428 493 35,000  Level Seattle Center
11:58PM 43.3122 -120.9194 167° South 426 490 35,000  Level Seattle Center
11:59PM 43.1983 -120.8864 168° South 421 484 35,000  Level Seattle Center
12:00AM 43.0856 -120.8519 167° South 419 482 35,000  Level Seattle Center
12:01AM 42.9708 -120.8167 167° South 419 482 35,000  Level Seattle Center
12:02AM 42.8553 -120.7831 168° South 420 483 35,000  Level Seattle Center
12:03AM 42.7411 -120.7489 168° South 420 483 35,000  Level Seattle Center
12:04AM 42.6281 -120.7158 168° South 418 481 35,000  Level Seattle Center
12:05AM 42.5150 -120.6817 167° South 417 480 35,000  Level Seattle Center
12:06AM 42.4019 -120.6492 168° South 416 479 35,000  Level Seattle Center
12:07AM 42.2683 -120.6078 167° South 414 476 35,000  Level Seattle Center
12:08AM 42.1558 -120.5764 168° South 413 475 35,000  Level Seattle Center
12:09AM 42.0458 -120.5433 167° South 407 468 35,000  Level Seattle Center
12:10AM 41.9333 -120.5122 168° South 409 471 35,000  Level Seattle Center
12:11AM 41.8225 -120.4794 168° South 410 472 35,000  Level Seattle Center
12:12AM 41.7106 -120.4472 168° South 410 472 35,000  Level Seattle Center
12:13AM 41.6011 -120.4136 167° South 408 470 35,000  Level Seattle Center
12:14AM 41.4900 -120.3817 168° South 407 468 35,000  Level Seattle Center
12:15AM 41.3775 -120.3511 168° South 413 475 35,000  Level Seattle Center
12:16AM 41.2664 -120.3192 168° South 411 473 35,000  Level Seattle Center
12:17AM 41.1575 -120.2869 167° South 407 468 35,000  Level Seattle Center
12:18AM 41.0467 -120.2561 168° South 406 467 35,000  Level Seattle Center
12:19AM 40.9372 -120.2264 168° South 404 465 35,000  Level Seattle Center
12:20AM 40.8528 -120.1997 167° South 403 464 35,000  Level Oakland Center
12:21AM 40.7425 -120.1703 169° South 403 464 35,000  Level Oakland Center
12:22AM 40.6119 -120.1339 168° South 403 464 35,000  Level Oakland Center
12:23AM 40.5036 -120.1025 168° South 399 459 35,000  Level Seattle Center
12:24AM 40.4061 -120.0733 167° South 399 459 35,000  Level Oakland Center
12:25AM 40.2975 -120.0442 168° South 399 459 35,000  Level Oakland Center
12:26AM 40.1892 -120.0136 168° South 399 459 35,000  Level Oakland Center
12:27AM 40.0589 -119.9794 169° South 400 460 35,000  Level Oakland Center
12:28AM 39.9489 -119.9489 168° South 402 463 35,000  Level Oakland Center
12:29AM 39.8408 -119.9194 168° South 399 459 35,000  Level Oakland Center
12:30AM 39.7317 -119.8897 168° South 400 460 35,000  Level Oakland Center
12:31AM 39.6228 -119.8603 168° South 400 460 35,000  Level Oakland Center
12:32AM 39.5117 -119.8306 168° South 403 464 35,000  Level Oakland Center
12:33AM 39.4033 -119.8014 168° South 404 465 35,000  Level Oakland Center
12:34AM 39.2947 -119.7733 169° South 400 460 35,000  Level Oakland Center
12:35AM 39.1856 -119.7431 168° South 400 460 35,000  Level Oakland Center
12:36AM 39.0528 -119.7072 168° South 402 463 35,000  Level Oakland Center
12:37AM 38.9422 -119.6769 168° South 404 465 35,000  Level Oakland Center
12:38AM 38.8311 -119.6478 168° South 410 472 35,000  Level Oakland Center
12:39AM 38.7200 -119.6189 169° South 410 472 35,000  Level Oakland Center
12:40AM 38.6100 -119.5903 169° South 408 470 35,000  Level Oakland Center
12:41AM 38.5003 -119.5617 168° South 404 465 35,000  Level Oakland Center
12:42AM 38.3903 -119.5322 168° South 404 465 35,000  Level Oakland Center
12:43AM 38.2775 -119.5036 169° South 408 470 35,000  Level Oakland Center
12:44AM 38.1642 -119.4744 169° South 409 471 35,000  Level Oakland Center
12:45AM 38.0536 -119.4417 167° South 410 472 35,000  Level Oakland Center
12:46AM 37.9383 -119.4136 169° South 413 475 35,000  Level Oakland Center
12:48AM 37.8222 -119.3842 169° South 416 479 35,000  Level Oakland Center
12:49AM 37.6836 -119.3511 169° South 421 484 35,000 -60 Level Oakland Center
12:50AM 37.5722 -119.3219 168° South 419 482 34,900  Descending Oakland Center
12:51AM 37.4631 -119.2933 168° South 405 466 35,000  Climbing Oakland Center
12:52AM 37.3506 -119.2644 168° South 406 467 35,000  Level Oakland Center
12:53AM 37.2364 -119.2358 169° South 417 480 35,000  Level Oakland Center
12:54AM 37.1239 -119.2072 169° South 414 476 35,000  Level Oakland Center
12:55AM 37.0106 -119.1792 169° South 414 476 35,000  Level Oakland Center
12:56AM 36.8978 -119.1497 168° South 414 476 35,000  Level Oakland Center
12:57AM 36.7836 -119.1211 169° South 414 476 35,000  Level Oakland Center
12:58AM 36.6697 -119.0936 169° South 415 478 35,000  Level Oakland Center
12:59AM 36.5567 -119.0647 168° South 415 478 35,000  Level Oakland Center
01:00AM 36.4436 -119.0367 169° South 414 476 35,000  Level Oakland Center
01:01AM 36.3289 -119.0067 168° South 415 478 35,000  Level Oakland Center
01:02AM 36.2164 -118.9789 169° South 415 478 35,000  Level Oakland Center
01:03AM 36.0814 -118.9469 169° South 415 478 35,000  Level Oakland Center
01:04AM 35.9686 -118.9197 169° South 414 476 35,000  Level Oakland Center
01:05AM 35.8558 -118.8911 168° South 413 475 35,000  Level Oakland Center
01:06AM 35.7447 -118.8650 169° South 410 472 35,000  Level Oakland Center
01:07AM 35.6289 -118.8356 168° South 417 480 35,000  Level Oakland Center
01:08AM 35.5150 -118.8086 169° South 418 481 35,000  Level Oakland Center
01:09AM 35.3994 -118.7800 169° South 419 482 35,000  Level Oakland Center
01:10AM 35.2839 -118.7536 169° South 421 484 35,000  Level Oakland Center
01:11AM 35.1683 -118.7242 168° South 421 484 35,000  Level Oakland Center
01:11AM 35.1228 -118.7136 169° South 419 482 35,000  Level Los Angeles Center
01:12AM 34.9825 -118.6819 170° South 422 486 35,000  Level Los Angeles Center
01:13AM 34.8661 -118.6533 169° South 422 486 35,000  Level Los Angeles Center
01:14AM 34.7508 -118.6267 169° South 422 486 35,000  Level Los Angeles Center
01:15AM 34.6356 -118.5986 169° South 424 488 35,000  Level Los Angeles Center
01:16AM 34.5206 -118.5703 169° South 423 487 35,000  Level Los Angeles Center
01:17AM 34.4128 -118.5028 153° Southeast 441 507 35,000  Level Los Angeles Center
01:18AM 34.3067 -118.4236 148° Southeast 444 511 35,000 -480 Level Los Angeles Center
01:20AM 34.1992 -118.3464 149° Southeast 447 514 34,100 -960 Descending Los Angeles Center
01:21AM 34.0919 -118.2686 149° Southeast 449 517 33,100 -1,020 Descending Los Angeles Center
01:22AM 33.9844 -118.1892 148° Southeast 447 514 32,100 -960 Descending Los Angeles Center
01:23AM 33.8783 -118.0994 145° Southeast 456 525 31,200 -900 Descending Los Angeles Center
01:24AM 33.7739 -118.0081 144° Southeast 456 525 30,300 -1,080 Descending Los Angeles Center
01:25AM 33.6689 -117.9197 145° Southeast 456 525 29,100 -2,100 Descending Los Angeles Center
01:26AM 33.5642 -117.8303 145° Southeast 457 526 26,100 -2,820 Descending Los Angeles Center
01:27AM 33.4611 -117.7433 145° Southeast 456 525 23,400 -2,640 Descending Los Angeles Center
01:28AM 33.3653 -117.6611 144° Southeast 426 490 20,800 -2,760 Descending Los Angeles Center
01:29AM 33.2539 -117.5669 145° Southeast 410 472 17,800 -2,700 Descending Los Angeles Center
01:30AM 33.1650 -117.4928 145° Southeast 395 455 15,400 -2,520 Descending Los Angeles Center
01:31AM 33.0778 -117.4214 146° Southeast 385 443 12,700 -2,640 Descending Los Angeles Center
01:32AM 32.9928 -117.3536 146° Southeast 382 440 10,100 -1,380 Descending Los Angeles Center
01:33AM 32.9175 -117.2939 146° Southeast 330 380 9,900 -1,140 Descending Los Angeles Center
01:34AM 32.8511 -117.2403 146° Southeast 294 338 7,800 -1,440 Descending Los Angeles Center
01:35AM 32.8047 -117.1764 131° Southeast 290 334 7,000 -720 Descending Los Angeles Center
01:36AM 32.7908 -117.1161 105° East 204 235 6,400 -1,380 Descending Los Angeles Center
01:37AM 32.7747 -117.0653 111° Southeast 174 200 4,300 -1,860 Descending Los Angeles Center
01:38AM 32.7328 -117.0606 175° South 190 219 2,700 -1,500 Descending Los Angeles Center
01:39AM 32.7153 -117.1142 249° West 153 176 1,300 -1,200 Descending Los Angeles Center
01:40AM 32.7256 -117.1619 284° West 146 168 400 -600 Descending Los Angeles Center
01:41AM 32.7361 -117.2067 286° West 147 169 200 -240 Descending Los Angeles Center
01:43AM 32.7333 -117.1833 90° East  Level FlightAware Approximate